Time;durP1;ratioP1;P1;durP2;ratioP2;P2;SDS_P1;SDS_P2;PMS_P1;PMS_P2;Temp;Humidity;BMP_temperature;BMP_pressure;BME280_temperature;BME280_humidity;BME280_pressure;Samples;Min_cycle;Max_cycle;Signal;HPM_P1;HPM_P2
2023/03/10 00:00:32;;;;;;;7.43;1.30;;;7.20;99.90;;;;;;8231450;28;20022;-79
2023/03/10 00:04:33;;;;;;;1.45;0.68;;;7.10;99.90;;;;;;8231459;28;20510;-77
2023/03/10 00:08:34;;;;;;;0.77;0.50;;;6.80;99.90;;;;;;8230868;28;20023;-78
2023/03/10 00:12:34;;;;;;;4.97;0.93;;;6.40;99.90;;;;;;8230840;28;20487;-78
2023/03/10 00:16:35;;;;;;;3.20;0.85;;;6.30;99.90;;;;;;8227617;28;20104;-77
2023/03/10 00:20:35;;;;;;;0.90;0.65;;;6.20;99.90;;;;;;8231401;28;20019;-78
2023/03/10 00:24:36;;;;;;;1.17;0.77;;;6.20;99.90;;;;;;8231923;28;20019;-78
2023/03/10 00:28:36;;;;;;;1.08;0.80;;;6.40;99.90;;;;;;8230914;28;20415;-77
2023/03/10 00:32:37;;;;;;;1.33;0.75;;;6.50;99.90;;;;;;8231843;28;20074;-78
2023/03/10 00:36:39;;;;;;;1.40;0.60;;;7.00;99.90;;;;;;8231690;28;20023;-78
2023/03/10 00:40:39;;;;;;;3.92;1.00;;;7.40;99.90;;;;;;8231892;28;20480;-79
2023/03/10 00:44:40;;;;;;;4.40;1.00;;;7.30;99.90;;;;;;8227922;28;20015;-78
2023/03/10 00:48:41;;;;;;;2.13;0.77;;;7.00;99.90;;;;;;8221479;28;20050;-78
2023/03/10 00:52:41;;;;;;;4.65;0.90;;;6.70;99.90;;;;;;8231274;28;20097;-77
2023/03/10 00:56:42;;;;;;;2.50;0.60;;;6.60;99.90;;;;;;8229561;28;20037;-77
2023/03/10 01:00:43;;;;;;;4.05;0.70;;;6.40;99.90;;;;;;8229775;28;20125;-78
2023/03/10 01:04:43;;;;;;;1.80;0.80;;;6.20;99.90;;;;;;8223730;28;20019;-78
2023/03/10 01:08:44;;;;;;;1.20;0.70;;;6.10;99.90;;;;;;8225080;28;20031;-78
2023/03/10 01:12:44;;;;;;;1.20;0.65;;;6.30;99.90;;;;;;8223709;28;20019;-79
2023/03/10 01:16:45;;;;;;;1.52;0.70;;;6.30;99.90;;;;;;8227191;28;20039;-78
2023/03/10 01:20:46;;;;;;;1.58;0.68;;;6.30;99.90;;;;;;8229583;28;20026;-77
2023/03/10 01:24:47;;;;;;;3.85;0.73;;;6.30;99.90;;;;;;8224219;28;20033;-77
2023/03/10 01:28:48;;;;;;;2.55;0.68;;;6.20;99.90;;;;;;8229067;28;20027;-78
2023/03/10 01:32:49;;;;;;;1.88;1.13;;;6.20;99.90;;;;;;8229040;28;20031;-77
2023/03/10 01:36:49;;;;;;;3.60;0.63;;;6.50;99.90;;;;;;8228419;28;20034;-78
2023/03/10 01:40:50;;;;;;;1.40;1.00;;;6.50;99.90;;;;;;8229036;28;20506;-77
2023/03/10 01:45:24;;;;;;;1.00;0.70;;;6.70;99.90;;;;;;8225779;28;20023;-78
2023/03/10 01:49:45;;;;;;;2.47;0.80;;;6.60;99.90;;;;;;8178016;28;21360;-78
2023/03/10 01:53:46;;;;;;;;;;;6.90;99.90;;;;;;8227846;28;20035;-77
2023/03/10 01:57:53;;;;;;;2.42;0.70;;;6.80;99.90;;;;;;8222433;28;19910;-78
2023/03/10 02:01:55;;;;;;;1.60;0.80;;;6.70;99.90;;;;;;8224306;28;20027;-78
2023/03/10 02:05:59;;;;;;;2.60;0.70;;;6.60;99.90;;;;;;8222122;28;20466;-78
2023/03/10 02:10:02;;;;;;;2.55;0.52;;;6.70;99.90;;;;;;8221883;28;20182;-78
2023/03/10 02:14:05;;;;;;;4.53;0.93;;;6.60;99.90;;;;;;8227474;28;20034;-77
2023/03/10 02:18:09;;;;;;;2.33;0.55;;;6.90;99.90;;;;;;8225638;28;20170;-78
2023/03/10 02:22:11;;;;;;;3.10;0.80;;;7.60;99.90;;;;;;8217863;28;20022;-78
2023/03/10 02:26:20;;;;;;;1.90;0.70;;;8.00;99.90;;;;;;8228378;28;20022;-78
2023/03/10 02:30:23;;;;;;;2.90;0.95;;;8.20;99.90;;;;;;8227157;28;20030;-78
2023/03/10 02:34:25;;;;;;;0.65;0.35;;;8.40;99.90;;;;;;8227146;28;20125;-78
2023/03/10 02:38:25;;;;;;;1.73;0.90;;;8.60;99.90;;;;;;8228160;28;20034;-78
2023/03/10 02:42:31;;;;;;;3.20;1.05;;;8.60;99.90;;;;;;8226849;28;20019;-77
2023/03/10 02:46:32;;;;;;;3.00;0.95;;;8.60;99.90;;;;;;8220727;28;20050;-78
2023/03/10 02:50:37;;;;;;;2.78;0.60;;;8.80;99.90;;;;;;8221150;28;20050;-77
2023/03/10 02:54:37;;;;;;;3.45;1.02;;;8.80;99.90;;;;;;8222145;28;20027;-79
2023/03/10 02:58:38;;;;;;;1.55;0.82;;;9.00;99.90;;;;;;8226387;28;20022;-77
2023/03/10 03:02:38;;;;;;;1.80;0.80;;;9.00;99.90;;;;;;8220835;28;20015;-77
2023/03/10 03:06:39;;;;;;;3.67;1.55;;;9.00;99.90;;;;;;8226309;28;20402;-78
2023/03/10 03:10:40;;;;;;;3.83;0.80;;;9.00;99.90;;;;;;8225960;28;20114;-77
2023/03/10 03:14:41;;;;;;;2.92;0.82;;;9.10;99.90;;;;;;8223662;28;20042;-77
2023/03/10 03:18:41;;;;;;;3.15;1.15;;;9.00;99.90;;;;;;8226906;28;20603;-78
2023/03/10 03:22:45;;;;;;;5.32;0.88;;;8.90;99.90;;;;;;8226626;28;20015;-77
2023/03/10 03:26:46;;;;;;;2.25;0.75;;;8.80;99.90;;;;;;8226155;28;20026;-78
2023/03/10 03:30:47;;;;;;;3.42;0.82;;;8.80;99.90;;;;;;8226402;28;20030;-77
2023/03/10 03:34:47;;;;;;;4.28;0.70;;;8.50;99.90;;;;;;8222361;28;20050;-77
2023/03/10 03:38:48;;;;;;;1.67;0.60;;;8.10;99.90;;;;;;8227632;28;20055;-77
2023/03/10 03:42:50;;;;;;;0.57;0.40;;;7.90;99.90;;;;;;8226301;28;20034;-78
2023/03/10 03:46:51;;;;;;;0.47;0.38;;;7.70;99.90;;;;;;8218111;28;20039;-77
2023/03/10 03:50:51;;;;;;;0.38;0.30;;;7.60;99.90;;;;;;8208352;28;20473;-77
2023/03/10 03:54:52;;;;;;;0.77;0.50;;;7.60;99.90;;;;;;8225340;28;20380;-77
2023/03/10 03:58:53;;;;;;;0.77;0.50;;;7.70;99.90;;;;;;8214716;28;20081;-78
2023/03/10 04:02:53;;;;;;;0.75;0.47;;;7.60;99.90;;;;;;8224717;28;20023;-77
2023/03/10 04:06:54;;;;;;;0.95;0.30;;;7.50;99.90;;;;;;8225561;28;20035;-77
2023/03/10 04:10:55;;;;;;;1.30;0.57;;;7.40;99.90;;;;;;8221691;28;20055;-77
2023/03/10 04:14:55;;;;;;;0.40;0.30;;;7.30;99.90;;;;;;8222356;28;20039;-76
2023/03/10 04:18:56;;;;;;;0.88;0.20;;;7.30;99.90;;;;;;8227082;28;20381;-77
2023/03/10 04:22:56;;;;;;;0.13;0.10;;;7.20;99.90;;;;;;8225691;28;20042;-77
2023/03/10 04:26:57;;;;;;;0.10;0.05;;;7.20;99.90;;;;;;8218481;28;20101;-78
2023/03/10 04:30:57;;;;;;;0.10;0.10;;;7.20;99.90;;;;;;8218504;28;20114;-78
2023/03/10 04:34:58;;;;;;;0.10;0.10;;;7.10;99.90;;;;;;8210501;28;20027;-79
2023/03/10 04:38:59;;;;;;;0.10;0.10;;;7.20;99.90;;;;;;8212873;28;20043;-78
2023/03/10 04:43:00;;;;;;;1.27;0.25;;;7.20;99.90;;;;;;8215810;28;20030;-77
2023/03/10 04:47:00;;;;;;;0.10;0.10;;;7.10;99.90;;;;;;8221592;28;20035;-77
2023/03/10 04:51:07;;;;;;;1.02;0.20;;;7.20;99.90;;;;;;8223124;28;20408;-77
2023/03/10 04:55:08;;;;;;;0.52;0.40;;;7.20;99.90;;;;;;8219756;28;20039;-77
2023/03/10 04:59:09;;;;;;;1.98;0.17;;;7.20;99.90;;;;;;8197114;28;20109;-77
2023/03/10 05:03:10;;;;;;;0.20;0.20;;;7.20;99.90;;;;;;8222578;28;20027;-77
2023/03/10 05:07:10;;;;;;;0.38;0.35;;;7.20;99.90;;;;;;8231292;28;20062;-78
2023/03/10 05:11:11;;;;;;;0.85;0.40;;;7.20;99.90;;;;;;8226846;28;20105;-79
2023/03/10 05:15:12;;;;;;;0.10;0.10;;;7.20;99.90;;;;;;8226828;28;20031;-78
2023/03/10 05:19:12;;;;;;;0.40;0.20;;;7.20;99.90;;;;;;8231586;28;20027;-77
2023/03/10 05:23:13;;;;;;;1.75;0.30;;;7.10;99.90;;;;;;8215986;28;20023;-78
2023/03/10 05:27:13;;;;;;;0.68;0.32;;;7.10;99.90;;;;;;8228468;28;20027;-78
2023/03/10 05:31:15;;;;;;;0.25;0.20;;;7.20;99.90;;;;;;8230539;28;20109;-78
2023/03/10 05:35:16;;;;;;;4.75;2.97;;;7.20;99.90;;;;;;8224862;28;20050;-78
2023/03/10 05:39:16;;;;;;;2.88;0.50;;;7.50;99.90;;;;;;8230201;28;20515;-78
2023/03/10 05:43:17;;;;;;;1.17;0.50;;;7.20;99.90;;;;;;8230942;28;20019;-79
2023/03/10 05:47:18;;;;;;;0.30;0.30;;;7.20;99.90;;;;;;8216477;28;20152;-79
2023/03/10 05:51:18;;;;;;;0.68;0.30;;;7.10;99.90;;;;;;8203328;28;20026;-77
2023/03/10 05:55:19;;;;;;;0.82;0.50;;;7.10;99.90;;;;;;8228320;28;20046;-78
2023/03/10 05:59:20;;;;;;;0.47;0.30;;;7.20;99.90;;;;;;8226835;28;20029;-77
2023/03/10 06:03:22;;;;;;;0.40;0.40;;;7.30;99.90;;;;;;8224545;28;20113;-79
2023/03/10 06:07:22;;;;;;;0.80;0.40;;;7.30;99.90;;;;;;8229231;28;20022;-78
2023/03/10 06:11:23;;;;;;;1.25;0.60;;;7.40;99.90;;;;;;8227073;28;20077;-79
2023/03/10 06:15:24;;;;;;;0.90;0.40;;;7.40;99.90;;;;;;8220999;28;20162;-79
2023/03/10 06:19:25;;;;;;;0.30;0.20;;;7.50;99.90;;;;;;8228304;28;20018;-79
2023/03/10 06:23:25;;;;;;;1.33;0.50;;;7.50;99.90;;;;;;8228366;28;20396;-79
2023/03/10 06:27:28;;;;;;;0.63;0.35;;;7.60;99.90;;;;;;8227322;28;20051;-79
2023/03/10 06:31:29;;;;;;;1.05;0.40;;;7.30;99.90;;;;;;8228435;28;20031;-78
2023/03/10 06:35:30;;;;;;;6.22;0.50;;;7.30;99.90;;;;;;8227555;28;20023;-79
2023/03/10 06:39:31;;;;;;;0.77;0.28;;;7.20;99.90;;;;;;8222995;28;20027;-78
2023/03/10 06:43:32;;;;;;;0.75;0.40;;;7.10;99.90;;;;;;8229442;28;20019;-79
2023/03/10 06:47:33;;;;;;;0.65;0.30;;;7.30;99.90;;;;;;8217338;28;20540;-78
2023/03/10 06:51:33;;;;;;;0.70;0.40;;;7.40;99.90;;;;;;8224451;28;20058;-79
2023/03/10 06:55:34;;;;;;;0.93;0.45;;;7.30;99.90;;;;;;8228046;28;20025;-79
2023/03/10 06:59:34;;;;;;;1.08;0.47;;;7.30;99.90;;;;;;8226344;28;20019;-78
2023/03/10 07:03:35;;;;;;;0.47;0.30;;;7.30;99.90;;;;;;8225195;28;20391;-78
2023/03/10 07:07:36;;;;;;;2.47;0.40;;;7.10;99.90;;;;;;8225951;28;20031;-79
2023/03/10 07:11:36;;;;;;;0.70;0.50;;;7.10;99.90;;;;;;8225829;28;20033;-78
2023/03/10 07:15:37;;;;;;;0.77;0.38;;;7.00;99.90;;;;;;8200687;28;20488;-78
2023/03/10 07:19:37;;;;;;;1.70;0.80;;;7.00;99.90;;;;;;8226815;28;20022;-78
2023/03/10 07:23:38;;;;;;;1.90;0.90;;;7.00;99.90;;;;;;8227940;28;20023;-79
2023/03/10 07:27:38;;;;;;;2.25;1.00;;;7.20;99.90;;;;;;8226562;28;20030;-79
2023/03/10 07:31:39;;;;;;;1.13;0.77;;;7.60;99.90;;;;;;8224254;28;20499;-78
2023/03/10 07:35:40;;;;;;;2.50;1.02;;;7.90;99.90;;;;;;8226605;28;20047;-77
2023/03/10 07:39:40;;;;;;;1.38;1.10;;;8.30;99.90;;;;;;8227666;28;20391;-79
2023/03/10 07:43:41;;;;;;;1.42;0.70;;;8.60;99.90;;;;;;8221033;28;20053;-79
2023/03/10 07:47:41;;;;;;;0.77;0.47;;;9.20;99.90;;;;;;8214893;28;20105;-79
2023/03/10 07:51:42;;;;;;;0.57;0.45;;;9.40;99.90;;;;;;8209316;28;20031;-78
2023/03/10 07:55:42;;;;;;;1.13;0.35;;;9.80;99.90;;;;;;8226589;28;20025;-79
2023/03/10 07:59:43;;;;;;;0.57;0.32;;;10.30;99.90;;;;;;8230657;28;20019;-79
2023/03/10 08:03:44;;;;;;;0.63;0.30;;;10.60;99.90;;;;;;8231999;28;20404;-79
2023/03/10 08:07:45;;;;;;;0.22;0.20;;;11.00;99.90;;;;;;8232122;28;20022;-79
2023/03/10 08:11:46;;;;;;;0.20;0.15;;;11.00;99.90;;;;;;8233769;28;20034;-76
2023/03/10 08:15:47;;;;;;;0.20;0.17;;;10.50;99.90;;;;;;8230194;28;20030;-78
2023/03/10 08:19:47;;;;;;;0.20;0.20;;;10.10;99.90;;;;;;8234376;28;20031;-79
2023/03/10 08:23:48;;;;;;;0.00;0.00;;;9.90;99.90;;;;;;8232759;28;20500;-79
2023/03/10 08:27:49;;;;;;;0.10;0.10;;;9.50;99.90;;;;;;8232702;28;20447;-78
2023/03/10 08:31:49;;;;;;;0.10;0.10;;;8.80;99.90;;;;;;8226990;28;20086;-78
2023/03/10 08:35:50;;;;;;;0.40;0.10;;;8.20;99.90;;;;;;8232963;28;20046;-78
2023/03/10 08:39:52;;;;;;;0.10;0.10;;;7.90;99.90;;;;;;8226176;28;20027;-78
2023/03/10 08:43:55;;;;;;;0.30;0.30;;;7.80;99.90;;;;;;8232336;28;20080;-79
2023/03/10 08:47:55;;;;;;;0.75;0.28;;;7.90;99.90;;;;;;8221105;28;20029;-79
2023/03/10 08:51:56;;;;;;;0.10;0.10;;;7.80;99.90;;;;;;8232435;28;20523;-78
2023/03/10 08:55:56;;;;;;;1.38;0.25;;;7.80;99.90;;;;;;8230659;28;20034;-79
2023/03/10 08:59:57;;;;;;;0.20;0.10;;;7.90;99.90;;;;;;8232008;28;20034;-78
2023/03/10 09:03:59;;;;;;;1.67;0.10;;;7.80;99.90;;;;;;8225022;28;20039;-79
2023/03/10 09:07:59;;;;;;;0.17;0.10;;;7.90;99.90;;;;;;8231594;28;20031;-79
2023/03/10 09:12:00;;;;;;;0.08;0.08;;;7.80;99.90;;;;;;8229973;28;20618;-79
2023/03/10 09:16:01;;;;;;;0.00;0.00;;;7.80;99.90;;;;;;8228748;28;20030;-78
2023/03/10 09:20:05;;;;;;;1.13;0.08;;;7.60;99.90;;;;;;8232137;28;20600;-78
2023/03/10 09:24:05;;;;;;;0.00;0.00;;;7.30;99.90;;;;;;8229257;28;20053;-78
2023/03/10 09:28:07;;;;;;;0.10;0.10;;;7.20;99.90;;;;;;8230493;28;20031;-78
2023/03/10 09:32:08;;;;;;;0.28;0.10;;;7.10;99.90;;;;;;8231210;28;20499;-78
2023/03/10 09:36:09;;;;;;;0.03;0.00;;;7.10;99.90;;;;;;8230269;28;20058;-78
2023/03/10 09:40:17;;;;;;;2.00;0.10;;;7.00;99.90;;;;;;8230141;28;20035;-77
2023/03/10 09:44:29;;;;;;;0.10;0.10;;;7.00;99.90;;;;;;8229869;28;20407;-77
2023/03/10 09:48:32;;;;;;;0.00;0.00;;;7.20;99.90;;;;;;8222771;28;20047;-78
2023/03/10 09:53:08;;;;;;;0.10;0.10;;;7.40;99.90;;;;;;8225704;28;20022;-78
2023/03/10 09:57:16;;;;;;;0.10;0.10;;;7.90;99.90;;;;;;8152148;28;20085;-78
2023/03/10 10:01:21;;;;;;;0.28;0.13;;;8.30;99.90;;;;;;8227655;28;20031;-79
2023/03/10 10:05:30;;;;;;;0.85;0.30;;;8.70;99.90;;;;;;8230265;28;20081;-78
2023/03/10 10:09:42;;;;;;;0.80;0.20;;;9.50;99.90;;;;;;8225686;28;20057;-78
2023/03/10 10:13:42;;;;;;;0.43;0.10;;;9.80;99.90;;;;;;8211889;28;20105;-78
2023/03/10 10:17:58;;;;;;;0.50;0.20;;;10.20;99.90;;;;;;8227995;28;20023;-78
2023/03/10 10:22:22;;;;;;;3.97;0.20;;;10.20;99.90;;;;;;8225768;28;20119;-78
2023/03/10 10:26:27;;;;;;;1.65;0.20;;;10.40;99.90;;;;;;8222409;28;20443;-79
2023/03/10 10:30:36;;;;;;;1.70;0.52;;;10.90;99.90;;;;;;8211734;28;20026;-79
2023/03/10 10:34:39;;;;;;;0.47;0.10;;;11.30;99.90;;;;;;8227412;28;20041;-79
2023/03/10 10:38:51;;;;;;;1.45;0.20;;;11.70;99.90;;;;;;8228315;28;20022;-79
2023/03/10 10:42:53;;;;;;;1.15;0.50;;;11.80;99.90;;;;;;8215321;28;20045;-78
2023/03/10 10:46:56;;;;;;;0.98;0.30;;;12.00;99.90;;;;;;8222989;28;20055;-79
2023/03/10 10:50:56;;;;;;;0.60;0.20;;;12.20;99.90;;;;;;8223446;28;20181;-80
2023/03/10 10:54:58;;;;;;;0.68;0.30;;;12.50;99.90;;;;;;8222264;28;20049;-79
2023/03/10 10:59:04;;;;;;;1.35;0.20;;;12.50;99.90;;;;;;8222627;28;20030;-78
2023/03/10 11:03:29;;;;;;;0.68;0.30;;;12.40;99.90;;;;;;8221423;28;20030;-79
2023/03/10 11:07:31;;;;;;;0.93;0.17;;;13.60;99.90;;;;;;8221889;28;20034;-78
2023/03/10 11:11:43;;;;;;;0.63;0.30;;;13.20;99.90;;;;;;8212988;28;20037;-78
2023/03/10 11:15:58;;;;;;;0.47;0.20;;;13.10;99.90;;;;;;8221029;28;20018;-77
2023/03/10 11:20:22;;;;;;;0.68;0.20;;;13.00;99.90;;;;;;8224603;28;20027;-78
2023/03/10 11:24:47;;;;;;;1.98;0.35;;;13.20;99.90;;;;;;8219877;28;20019;-78
2023/03/10 11:29:03;;;;;;;0.82;0.20;;;13.00;99.90;;;;;;8203031;28;20022;-78
2023/03/10 11:33:13;;;;;;;1.27;0.45;;;12.20;99.90;;;;;;8228046;28;20030;-79
2023/03/10 11:37:33;;;;;;;0.68;0.30;;;12.10;99.90;;;;;;8215740;28;20027;-79
2023/03/10 11:41:42;;;;;;;1.67;0.43;;;12.00;99.90;;;;;;8228327;28;20042;-79
2023/03/10 11:45:52;;;;;;;0.10;0.10;;;12.10;99.90;;;;;;8230961;28;20026;-78
2023/03/10 11:50:06;;;;;;;1.37;0.30;;;12.00;99.90;;;;;;8222842;28;20460;-77
2023/03/10 11:54:34;;;;;;;0.20;0.20;;;12.40;99.90;;;;;;8216571;28;20142;-79
2023/03/10 11:58:38;;;;;;;1.55;0.65;;;12.30;99.90;;;;;;8226557;28;20030;-79
2023/03/10 12:03:04;;;;;;;0.00;0.00;;;12.20;99.90;;;;;;8215385;28;20023;-78
2023/03/10 12:07:27;;;;;;;0.20;0.20;;;12.60;99.90;;;;;;8221806;28;20114;-78
2023/03/10 12:11:29;;;;;;;0.40;0.30;;;12.80;99.90;;;;;;8233063;28;20049;-78
2023/03/10 12:15:38;;;;;;;0.40;0.30;;;12.70;99.90;;;;;;8228241;28;20119;-78
2023/03/10 12:20:10;;;;;;;0.25;0.20;;;13.70;99.90;;;;;;8229161;28;20050;-77
2023/03/10 12:24:46;;;;;;;0.95;0.38;;;13.30;99.90;;;;;;8213434;28;20650;-79
2023/03/10 12:28:46;;;;;;;0.20;0.10;;;12.90;99.90;;;;;;8231131;28;20062;-78
2023/03/10 12:32:47;;;;;;;0.52;0.43;;;12.80;99.90;;;;;;8230990;28;20607;-78
2023/03/10 12:37:01;;;;;;;0.50;0.30;;;12.50;99.90;;;;;;8230386;28;20113;-79
2023/03/10 12:41:02;;;;;;;1.35;0.30;;;12.70;99.90;;;;;;8226257;28;20034;-78
2023/03/10 12:45:28;;;;;;;0.10;0.10;;;11.70;99.90;;;;;;8226065;28;20023;-78
2023/03/10 12:49:39;;;;;;;0.25;0.20;;;11.20;99.90;;;;;;8220067;28;20026;-78
2023/03/10 12:54:00;;;;;;;0.25;0.20;;;11.20;99.90;;;;;;8219781;28;20033;-78
2023/03/10 12:58:10;;;;;;;;;;;11.70;99.90;;;;;;8222973;28;20038;-79
2023/03/10 13:02:32;;;;;;;0.20;0.20;;;11.70;99.90;;;;;;8219550;28;20369;-79
2023/03/10 13:06:37;;;;;;;1.85;0.30;;;11.80;99.90;;;;;;8210186;28;20047;-77
2023/03/10 13:10:38;;;;;;;0.30;0.30;;;11.80;99.90;;;;;;8226140;28;20491;-78
2023/03/10 13:14:41;;;;;;;1.95;0.30;;;11.80;99.90;;;;;;8227961;28;20033;-78
2023/03/10 13:18:49;;;;;;;0.20;0.20;;;11.20;99.90;;;;;;8229552;28;20050;-79
2023/03/10 13:22:56;;;;;;;0.17;0.10;;;10.70;99.90;;;;;;8207237;28;20019;-78
2023/03/10 13:27:12;;;;;;;0.20;0.15;;;10.20;99.90;;;;;;8230745;28;20039;-78
2023/03/10 13:31:18;;;;;;;1.33;0.13;;;9.80;99.90;;;;;;8226778;28;20550;-78
2023/03/10 13:35:23;;;;;;;0.57;0.20;;;9.40;99.90;;;;;;8221527;28;20046;-78
2023/03/10 13:39:26;;;;;;;0.30;0.30;;;9.10;99.90;;;;;;8229690;28;20022;-77
2023/03/10 13:43:36;;;;;;;0.10;0.10;;;8.90;99.90;;;;;;8228667;28;20039;-78
2023/03/10 13:47:41;;;;;;;0.00;0.00;;;8.60;99.90;;;;;;8216696;28;20030;-77
2023/03/10 13:52:00;;;;;;;0.10;0.10;;;8.60;99.90;;;;;;8224522;28;20031;-77
2023/03/10 13:56:15;;;;;;;0.10;0.10;;;8.40;99.90;;;;;;8226120;28;20035;-77
2023/03/10 14:00:19;;;;;;;0.85;0.20;;;8.50;99.90;;;;;;8218778;28;20153;-77
2023/03/10 14:04:43;;;;;;;0.00;0.00;;;8.50;99.90;;;;;;8206966;28;20373;-78
2023/03/10 14:08:43;;;;;;;0.30;0.22;;;8.20;99.90;;;;;;8226710;28;20019;-77
2023/03/10 14:12:47;;;;;;;0.10;0.10;;;8.30;99.90;;;;;;8227562;28;20169;-78
2023/03/10 14:16:58;;;;;;;0.10;0.10;;;8.70;99.90;;;;;;8208208;28;20027;-78
2023/03/10 14:21:22;;;;;;;0.00;0.00;;;8.80;99.90;;;;;;8221114;28;20156;-78
2023/03/10 14:25:23;;;;;;;0.20;0.20;;;8.80;99.90;;;;;;8228096;28;20030;-78
2023/03/10 14:29:25;;;;;;;0.45;0.20;;;8.80;99.90;;;;;;8227937;28;20121;-77
2023/03/10 14:33:25;;;;;;;0.20;0.20;;;8.50;99.90;;;;;;8227378;28;20027;-81
2023/03/10 14:37:26;;;;;;;0.10;0.10;;;8.10;99.90;;;;;;8225474;28;20403;-80
2023/03/10 14:41:28;;;;;;;0.13;0.10;;;8.00;99.90;;;;;;8219619;28;20033;-77
2023/03/10 14:45:32;;;;;;;0.10;0.10;;;8.30;99.90;;;;;;8214396;28;20027;-78
2023/03/10 14:49:33;;;;;;;0.10;0.10;;;8.50;99.90;;;;;;8216331;28;20023;-79
2023/03/10 14:53:34;;;;;;;0.10;0.10;;;8.60;99.90;;;;;;8217891;28;20057;-79
2023/03/10 14:57:36;;;;;;;0.05;0.05;;;8.60;99.90;;;;;;8220889;28;20546;-79
2023/03/10 15:01:37;;;;;;;0.20;0.20;;;8.70;99.90;;;;;;8222856;28;20031;-79
2023/03/10 15:05:38;;;;;;;0.10;0.10;;;8.80;99.90;;;;;;8208988;28;20114;-78
2023/03/10 15:09:39;;;;;;;0.32;0.30;;;9.00;99.90;;;;;;8215815;28;20059;-78
2023/03/10 15:13:40;;;;;;;0.20;0.20;;;8.90;99.90;;;;;;8228192;28;20055;-78
2023/03/10 15:17:40;;;;;;;0.13;0.13;;;8.80;99.90;;;;;;8221743;28;20043;-79
2023/03/10 15:21:41;;;;;;;0.17;0.17;;;8.60;99.90;;;;;;8219292;28;20608;-78
2023/03/10 15:25:41;;;;;;;0.50;0.05;;;8.70;99.90;;;;;;8222648;28;20038;-79
2023/03/10 15:29:42;;;;;;;0.20;0.20;;;8.70;99.90;;;;;;8218403;28;20475;-78
2023/03/10 15:33:42;;;;;;;0.10;0.10;;;8.70;99.90;;;;;;8195934;28;20035;-78
2023/03/10 15:37:43;;;;;;;0.20;0.20;;;8.70;99.90;;;;;;8190797;28;20034;-78
2023/03/10 15:41:44;;;;;;;0.10;0.10;;;8.70;99.90;;;;;;8177457;28;20035;-78
2023/03/10 15:45:50;;;;;;;0.03;0.03;;;8.60;99.90;;;;;;8196481;28;20517;-78
2023/03/10 15:49:51;;;;;;;1.00;0.17;;;8.50;99.90;;;;;;8177664;28;20601;-78
2023/03/10 15:53:51;;;;;;;0.10;0.10;;;8.40;99.90;;;;;;8195190;28;20047;-79
2023/03/10 15:57:52;;;;;;;0.85;0.30;;;8.40;99.90;;;;;;8215152;28;20038;-78
2023/03/10 16:01:53;;;;;;;0.10;0.10;;;8.30;99.90;;;;;;8211594;28;20034;-78
2023/03/10 16:05:53;;;;;;;0.15;0.15;;;8.30;99.90;;;;;;8204259;28;20050;-78
2023/03/10 16:09:54;;;;;;;0.60;0.30;;;8.30;99.90;;;;;;8184758;28;20581;-78
2023/03/10 16:13:54;;;;;;;1.23;0.40;;;8.40;99.90;;;;;;8189111;28;20027;-78
2023/03/10 16:17:55;;;;;;;0.38;0.10;;;8.40;99.90;;;;;;8169123;28;20027;-79
2023/03/10 16:21:56;;;;;;;0.55;0.30;;;8.30;99.90;;;;;;8201858;28;20039;-78
2023/03/10 16:26:18;;;;;;;2.42;0.45;;;8.30;99.90;;;;;;8195374;28;20027;-78
2023/03/10 16:30:19;;;;;;;0.77;0.50;;;8.40;99.90;;;;;;8204317;28;20544;-79
2023/03/10 16:34:20;;;;;;;0.20;0.20;;;8.30;99.90;;;;;;8182314;28;20035;-78
2023/03/10 16:38:20;;;;;;;4.82;0.70;;;8.20;99.90;;;;;;8199575;28;20042;-78
2023/03/10 16:42:23;;;;;;;0.50;0.40;;;8.00;99.90;;;;;;8194674;28;20042;-77
2023/03/10 16:46:28;;;;;;;0.40;0.30;;;7.90;99.90;;;;;;8210973;28;20054;-78
2023/03/10 16:50:32;;;;;;;1.98;0.50;;;7.70;99.90;;;;;;8203339;28;20042;-79
2023/03/10 16:54:32;;;;;;;2.83;0.60;;;7.60;99.90;;;;;;8219357;28;20070;-78
2023/03/10 16:58:33;;;;;;;1.00;0.50;;;7.50;99.90;;;;;;8183101;28;20503;-78
2023/03/10 17:02:34;;;;;;;0.75;0.30;;;7.40;99.90;;;;;;8182164;28;20597;-79
2023/03/10 17:06:35;;;;;;;2.13;0.73;;;7.20;99.90;;;;;;8216193;28;20057;-79
2023/03/10 17:10:35;;;;;;;1.33;0.50;;;7.00;99.90;;;;;;8209397;28;20037;-79
2023/03/10 17:14:36;;;;;;;6.05;0.73;;;6.90;99.90;;;;;;8207136;28;20406;-79
2023/03/10 17:18:37;;;;;;;1.08;0.40;;;6.90;99.90;;;;;;8213234;28;20058;-79
2023/03/10 17:22:37;;;;;;;3.95;1.17;;;6.90;99.90;;;;;;8208569;28;20026;-77
2023/03/10 17:26:38;;;;;;;0.77;0.45;;;6.70;99.90;;;;;;8189351;28;20173;-78
2023/03/10 17:30:39;;;;;;;0.95;0.60;;;6.30;99.90;;;;;;8200627;28;20261;-77
2023/03/10 17:34:41;;;;;;;1.50;0.63;;;5.90;99.90;;;;;;8192538;28;20046;-78
2023/03/10 17:38:42;;;;;;;0.30;0.30;;;5.70;99.90;;;;;;8194071;28;20176;-76
2023/03/10 17:42:43;;;;;;;3.95;0.77;;;5.50;99.90;;;;;;8201212;28;20471;-78
2023/03/10 17:46:44;;;;;;;0.50;0.30;;;5.30;99.90;;;;;;8177833;28;20056;-78
2023/03/10 17:50:47;;;;;;;1.23;0.38;;;5.10;99.90;;;;;;8184038;28;20058;-77
2023/03/10 17:54:49;;;;;;;1.42;0.70;;;5.00;99.90;;;;;;8200267;28;20053;-78
2023/03/10 17:58:53;;;;;;;35.13;13.23;;;4.90;99.90;;;;;;8196174;28;20036;-77
2023/03/10 18:02:54;;;;;;;0.60;0.40;;;4.90;99.90;;;;;;8193214;28;20027;-78
2023/03/10 18:06:54;;;;;;;1.02;0.47;;;4.80;99.90;;;;;;8199752;28;20074;-79
2023/03/10 18:11:00;;;;;;;1.38;0.47;;;5.00;99.90;;;;;;8214694;28;20042;-78
2023/03/10 18:15:02;;;;;;;1.52;0.60;;;5.00;99.90;;;;;;8200555;28;20045;-78
2023/03/10 18:19:03;;;;;;;3.58;0.70;;;5.10;99.90;;;;;;8195757;28;20111;-77
2023/03/10 18:23:03;;;;;;;3.83;1.13;;;5.20;99.90;;;;;;8195102;28;20090;-77
2023/03/10 18:27:04;;;;;;;3.00;0.80;;;5.20;99.90;;;;;;8202897;28;20031;-78
2023/03/10 18:31:10;;;;;;;4.13;0.77;;;5.30;99.90;;;;;;8212158;28;20027;-79
2023/03/10 18:35:11;;;;;;;3.33;0.93;;;5.30;99.90;;;;;;8223705;28;20046;-79
2023/03/10 18:39:11;;;;;;;6.03;1.50;;;5.30;99.90;;;;;;8210521;28;20027;-79
2023/03/10 18:43:12;;;;;;;8.05;1.95;;;5.30;99.90;;;;;;8220857;28;20027;-79
2023/03/10 18:47:12;;;;;;;8.32;3.60;;;5.40;99.90;;;;;;8211702;28;20082;-79
2023/03/10 18:51:13;;;;;;;3.90;1.42;;;5.40;99.90;;;;;;8217323;28;20030;-79
2023/03/10 18:55:14;;;;;;;7.72;2.33;;;5.50;99.90;;;;;;8212711;28;20034;-79
2023/03/10 18:59:14;;;;;;;5.82;1.70;;;5.50;99.90;;;;;;8208177;28;20023;-79
2023/03/10 19:03:15;;;;;;;6.28;1.25;;;5.30;99.90;;;;;;8217837;28;20027;-79
2023/03/10 19:07:19;;;;;;;1.67;0.80;;;5.30;99.90;;;;;;8221836;28;20460;-78
2023/03/10 19:11:22;;;;;;;1.20;1.05;;;5.40;99.90;;;;;;8222184;28;20028;-78
2023/03/10 19:15:23;;;;;;;1.63;0.55;;;5.30;99.90;;;;;;8226572;28;20058;-78
2023/03/10 19:19:24;;;;;;;0.43;0.28;;;5.20;99.90;;;;;;8210450;28;20023;-79
2023/03/10 19:23:24;;;;;;;2.08;0.40;;;5.20;99.90;;;;;;8205050;28;20023;-79
2023/03/10 19:27:25;;;;;;;0.70;0.20;;;5.30;99.90;;;;;;8210895;28;20027;-78
2023/03/10 19:31:25;;;;;;;1.48;0.63;;;5.30;99.90;;;;;;8217461;28;20023;-79
2023/03/10 19:35:26;;;;;;;0.93;0.40;;;5.40;99.90;;;;;;8205666;28;20085;-78
2023/03/10 19:39:26;;;;;;;2.00;0.60;;;5.50;99.90;;;;;;8195658;28;20499;-78
2023/03/10 19:43:27;;;;;;;1.65;0.52;;;5.60;99.90;;;;;;8184031;28;20472;-78
2023/03/10 19:47:31;;;;;;;3.65;1.20;;;5.60;99.90;;;;;;8212089;28;20038;-77
2023/03/10 19:51:32;;;;;;;4.18;0.90;;;5.70;99.90;;;;;;8213831;28;20061;-77
2023/03/10 19:55:32;;;;;;;2.33;0.90;;;5.80;99.90;;;;;;8214160;28;20065;-80
2023/03/10 19:59:33;;;;;;;2.15;0.73;;;5.70;99.90;;;;;;8210056;28;20055;-77
2023/03/10 20:03:33;;;;;;;3.47;0.80;;;5.40;99.90;;;;;;8201477;28;20444;-76
2023/03/10 20:07:34;;;;;;;1.42;0.55;;;5.00;99.90;;;;;;8181183;28;20043;-78
2023/03/10 20:11:39;;;;;;;2.53;0.90;;;4.60;99.90;;;;;;8185262;28;20074;-76
2023/03/10 20:15:40;;;;;;;0.80;0.40;;;4.50;99.90;;;;;;8211007;28;20034;-77
2023/03/10 20:19:42;;;;;;;2.25;0.70;;;4.50;99.90;;;;;;8213179;28;20403;-78
2023/03/10 20:23:46;;;;;;;3.65;0.60;;;4.50;99.90;;;;;;8213877;28;20031;-77
2023/03/10 20:27:49;;;;;;;2.65;0.65;;;4.70;99.90;;;;;;8210385;28;20038;-78
2023/03/10 20:31:49;;;;;;;2.80;0.50;;;4.70;99.90;;;;;;8199196;28;20038;-76
2023/03/10 20:35:50;;;;;;;1.98;0.75;;;4.80;99.90;;;;;;8195135;28;20466;-76
2023/03/10 20:39:51;;;;;;;1.85;0.40;;;4.30;99.90;;;;;;8182296;28;20027;-76
2023/03/10 20:43:52;;;;;;;0.55;0.50;;;3.70;99.90;;;;;;8183241;28;20665;-77
2023/03/10 20:47:53;;;;;;;1.65;1.05;;;3.60;99.90;;;;;;8189300;28;20419;-77
2023/03/10 20:51:53;;;;;;;1.45;0.90;;;3.60;99.90;;;;;;8212801;28;20027;-76
2023/03/10 20:55:54;;;;;;;3.67;1.42;;;3.60;99.90;;;;;;8208368;28;20041;-76
2023/03/10 20:59:54;;;;;;;1.60;0.73;;;3.40;99.90;;;;;;8192773;28;20039;-77
2023/03/10 21:03:57;;;;;;;1.73;0.85;;;3.40;99.90;;;;;;8205353;28;20027;-77
2023/03/10 21:07:57;;;;;;;0.75;0.52;;;3.40;99.90;;;;;;8199058;28;20035;-77
2023/03/10 21:12:01;;;;;;;0.38;0.30;;;3.50;99.90;;;;;;8199821;28;20482;-78
2023/03/10 21:16:01;;;;;;;1.48;0.82;;;3.70;99.90;;;;;;8205835;28;20074;-78
2023/03/10 21:20:07;;;;;;;4.10;0.73;;;3.70;99.90;;;;;;8194347;28;20062;-79